createdAt,value
2023-04-22T00:00:18.298Z,12.06
2023-04-22T00:01:18.284Z,12.07
2023-04-22T00:02:18.175Z,12.06
2023-04-22T00:03:18.297Z,12.04
2023-04-22T00:04:19.153Z,11.98
2023-04-22T00:05:20.719Z,11.99
2023-04-22T00:06:18.202Z,11.91
2023-04-22T00:07:18.044Z,11.73
2023-04-22T00:08:18.848Z,11.63
2023-04-22T00:09:18.213Z,11.72
2023-04-22T00:10:18.174Z,11.76
2023-04-22T00:11:18.039Z,11.68
2023-04-22T00:12:18.009Z,11.63
2023-04-22T00:13:18.207Z,11.69
2023-04-22T00:14:18.172Z,11.71
2023-04-22T00:15:18.078Z,11.78
2023-04-22T00:16:18.042Z,11.87
2023-04-22T00:17:18.093Z,11.92
2023-04-22T00:18:18.242Z,11.85
2023-04-22T00:19:18.042Z,11.66
2023-04-22T00:20:18.059Z,11.62
2023-04-22T00:21:18.146Z,11.60
2023-04-22T00:22:17.960Z,11.50
2023-04-22T00:23:18.076Z,11.46
2023-04-22T00:24:18.023Z,11.50
2023-04-22T00:25:17.955Z,11.62
2023-04-22T00:26:17.958Z,11.75
2023-04-22T00:27:18.052Z,11.83
2023-04-22T00:28:17.971Z,11.87
2023-04-22T00:29:17.921Z,11.84
2023-04-22T00:30:17.991Z,11.94
2023-04-22T00:31:18.062Z,12.00
2023-04-22T00:32:17.909Z,12.07
2023-04-22T00:33:18.090Z,12.08
2023-04-22T00:34:18.161Z,12.04
2023-04-22T00:35:18.326Z,12.04
2023-04-22T00:36:17.864Z,12.05
2023-04-22T00:37:18.045Z,12.13
2023-04-22T00:38:18.074Z,12.11
2023-04-22T00:39:18.179Z,12.16
2023-04-22T00:40:18.166Z,12.24
2023-04-22T00:41:18.116Z,12.17
2023-04-22T00:42:18.015Z,12.12
2023-04-22T00:43:18.052Z,11.86
2023-04-22T00:44:18.192Z,11.73
2023-04-22T00:45:18.278Z,11.69
2023-04-22T00:46:18.249Z,11.73
2023-04-22T00:47:18.154Z,11.79
2023-04-22T00:48:18.171Z,11.80
2023-04-22T00:49:18.274Z,11.84
2023-04-22T00:50:18.232Z,11.91
2023-04-22T00:51:18.292Z,11.96
2023-04-22T00:52:18.237Z,11.82
2023-04-22T00:53:18.258Z,11.80
2023-04-22T00:54:18.302Z,11.86
2023-04-22T00:55:18.292Z,11.90
2023-04-22T00:56:18.327Z,11.91
2023-04-22T00:57:18.420Z,11.94
2023-04-22T00:58:18.381Z,11.96
2023-04-22T00:59:18.670Z,11.95
2023-04-22T01:00:18.509Z,11.91
2023-04-22T01:01:19.234Z,11.94
2023-04-22T01:02:18.734Z,11.94
2023-04-22T01:03:18.736Z,12.00
2023-04-22T01:04:19.417Z,12.02
2023-04-22T01:05:18.651Z,11.98
2023-04-22T01:06:18.518Z,11.98
2023-04-22T01:07:18.564Z,11.97
2023-04-22T01:08:18.641Z,11.91
2023-04-22T01:09:18.667Z,11.91
2023-04-22T01:10:18.635Z,11.94
2023-04-22T01:11:18.700Z,11.95
2023-04-22T01:12:18.664Z,12.00
2023-04-22T01:13:18.787Z,11.98
2023-04-22T01:14:18.818Z,11.90
2023-04-22T01:15:18.767Z,11.73
2023-04-22T01:16:18.768Z,11.63
2023-04-22T01:17:18.880Z,11.45
2023-04-22T01:18:18.822Z,11.33
2023-04-22T01:19:18.717Z,11.26
2023-04-22T01:20:18.680Z,11.13
2023-04-22T01:21:18.786Z,11.12
2023-04-22T01:22:18.734Z,11.06
2023-04-22T01:23:18.634Z,11.08
2023-04-22T01:24:18.645Z,11.05
2023-04-22T01:25:18.653Z,11.07
2023-04-22T01:26:18.789Z,11.10
2023-04-22T01:27:18.734Z,11.15
2023-04-22T01:28:18.603Z,11.05
2023-04-22T01:29:18.603Z,11.02
2023-04-22T01:30:18.671Z,10.89
2023-04-22T01:31:18.592Z,10.83
2023-04-22T01:32:19.014Z,10.68
2023-04-22T01:33:18.721Z,10.65
2023-04-22T01:34:18.841Z,10.62
2023-04-22T01:35:18.939Z,10.59
2023-04-22T01:36:18.842Z,10.48
2023-04-22T01:37:18.877Z,10.41
2023-04-22T01:38:18.948Z,10.33
2023-04-22T01:39:19.079Z,10.36
2023-04-22T01:40:19.188Z,10.42
2023-04-22T01:41:19.288Z,10.45
2023-04-22T01:42:19.099Z,10.41
2023-04-22T01:43:19.187Z,10.41
2023-04-22T01:44:19.348Z,10.49
2023-04-22T01:45:19.325Z,10.55
2023-04-22T01:46:19.337Z,10.63
2023-04-22T01:47:19.302Z,10.67
2023-04-22T01:48:19.386Z,10.66
2023-04-22T01:49:19.212Z,10.66
2023-04-22T01:50:19.267Z,10.68
2023-04-22T01:51:19.338Z,10.74
2023-04-22T01:52:19.314Z,10.71
2023-04-22T01:53:19.151Z,10.70
2023-04-22T01:54:19.308Z,10.61
2023-04-22T01:55:19.125Z,10.65
2023-04-22T01:56:19.293Z,10.67
2023-04-22T01:57:19.190Z,10.63
2023-04-22T01:58:19.296Z,10.54
2023-04-22T01:59:19.310Z,10.50
2023-04-22T02:00:19.410Z,10.45
2023-04-22T02:01:19.546Z,10.39
2023-04-22T02:02:19.575Z,10.42
2023-04-22T02:03:19.520Z,10.30
2023-04-22T02:04:19.505Z,10.22
2023-04-22T02:05:19.448Z,10.14
2023-04-22T02:06:19.447Z,10.14
2023-04-22T02:07:19.506Z,10.17
2023-04-22T02:08:19.502Z,10.21
2023-04-22T02:09:19.565Z,10.22
2023-04-22T02:10:19.814Z,10.18
2023-04-22T02:11:19.609Z,10.13
2023-04-22T02:12:19.543Z,10.07
2023-04-22T02:13:19.763Z,10.08
2023-04-22T02:14:19.727Z,9.99
2023-04-22T02:15:19.901Z,9.99
2023-04-22T02:16:19.801Z,10.06
2023-04-22T02:17:19.599Z,10.02
2023-04-22T02:18:19.584Z,9.99
2023-04-22T02:19:19.666Z,9.98
2023-04-22T02:20:19.625Z,9.93
2023-04-22T02:21:19.573Z,9.90
2023-04-22T02:22:19.633Z,9.91
2023-04-22T02:23:19.534Z,9.92
2023-04-22T02:24:19.602Z,9.92
2023-04-22T02:25:19.698Z,9.92
2023-04-22T02:26:19.627Z,9.99
2023-04-22T02:27:19.509Z,10.01
2023-04-22T02:28:19.520Z,10.00
2023-04-22T02:29:19.500Z,10.06
2023-04-22T02:30:19.594Z,10.12
2023-04-22T02:31:19.562Z,10.10
2023-04-22T02:32:19.656Z,10.07
2023-04-22T02:33:19.448Z,10.03
2023-04-22T02:34:19.499Z,9.97
2023-04-22T02:35:19.523Z,9.91
2023-04-22T02:36:19.522Z,9.94
2023-04-22T02:37:19.558Z,9.96
2023-04-22T02:38:19.528Z,9.90
2023-04-22T02:39:19.497Z,9.87
2023-04-22T02:40:19.585Z,9.81
2023-04-22T02:41:19.567Z,9.82
2023-04-22T02:42:19.609Z,9.86
2023-04-22T02:43:19.529Z,9.85
2023-04-22T02:44:19.582Z,9.77
2023-04-22T02:45:19.618Z,9.64
2023-04-22T02:46:19.652Z,9.61
2023-04-22T02:47:19.668Z,9.62
2023-04-22T02:48:19.640Z,9.71
2023-04-22T02:49:19.686Z,9.66
2023-04-22T02:50:19.862Z,9.64
2023-04-22T02:51:19.781Z,9.71
2023-04-22T02:52:19.814Z,9.68
2023-04-22T02:53:19.815Z,9.69
2023-04-22T02:54:19.798Z,9.71
2023-04-22T02:55:19.906Z,9.66
2023-04-22T02:56:19.885Z,9.72
2023-04-22T02:57:19.930Z,9.77
2023-04-22T02:58:19.925Z,9.81
2023-04-22T02:59:19.981Z,9.88
2023-04-22T03:00:20.017Z,9.80
2023-04-22T03:01:20.147Z,9.73
2023-04-22T03:02:20.137Z,9.67
2023-04-22T03:03:20.199Z,9.51
2023-04-22T03:04:20.159Z,9.46
2023-04-22T03:05:20.216Z,9.45
2023-04-22T03:06:20.178Z,9.44
2023-04-22T03:07:20.219Z,9.38
2023-04-22T03:08:20.248Z,9.36
2023-04-22T03:09:20.283Z,9.38
2023-04-22T03:10:20.299Z,9.50
2023-04-22T03:11:20.371Z,9.54
2023-04-22T03:12:20.369Z,9.57
2023-04-22T03:13:20.361Z,9.55
2023-04-22T03:14:20.395Z,9.50
2023-04-22T03:15:21.704Z,9.49
2023-04-22T03:16:20.598Z,9.42
2023-04-22T03:17:20.486Z,9.50
2023-04-22T03:18:20.525Z,9.50
2023-04-22T03:19:20.605Z,9.55
2023-04-22T03:20:20.650Z,9.48
2023-04-22T03:21:20.579Z,9.50
2023-04-22T03:22:20.607Z,9.49
2023-04-22T03:23:20.652Z,9.56
2023-04-22T03:24:20.670Z,9.59
2023-04-22T03:25:20.697Z,9.62
2023-04-22T03:26:20.657Z,9.64
2023-04-22T03:27:20.692Z,9.62
2023-04-22T03:28:20.707Z,9.66
2023-04-22T03:29:20.817Z,9.71
2023-04-22T03:30:20.875Z,9.69
2023-04-22T03:31:21.322Z,9.54
2023-04-22T03:32:20.915Z,9.54
2023-04-22T03:33:20.875Z,9.61
2023-04-22T03:34:20.820Z,9.63
2023-04-22T03:35:20.829Z,9.66
2023-04-22T03:36:20.847Z,9.71
2023-04-22T03:37:20.896Z,9.72
2023-04-22T03:38:20.881Z,9.69
2023-04-22T03:39:20.898Z,9.71
2023-04-22T03:40:20.927Z,9.68
2023-04-22T03:41:20.895Z,9.64
2023-04-22T03:42:20.902Z,9.59
2023-04-22T03:43:20.927Z,9.51
2023-04-22T03:44:20.966Z,9.44
2023-04-22T03:45:21.325Z,9.40
2023-04-22T03:46:21.053Z,9.41
2023-04-22T03:47:21.101Z,9.37
2023-04-22T03:48:21.110Z,9.35
2023-04-22T03:49:21.215Z,9.34
2023-04-22T03:50:21.166Z,9.39
2023-04-22T03:51:21.292Z,9.40
2023-04-22T03:52:21.249Z,9.40
2023-04-22T03:53:21.338Z,9.42
2023-04-22T03:54:21.383Z,9.41
2023-04-22T03:55:21.480Z,9.39
2023-04-22T03:56:21.539Z,9.38
2023-04-22T03:57:21.538Z,9.35
2023-04-22T03:58:21.555Z,9.38
2023-04-22T03:59:21.604Z,9.40
2023-04-22T04:00:21.749Z,9.34
2023-04-22T04:01:21.740Z,9.33
2023-04-22T04:02:21.767Z,9.32
2023-04-22T04:03:21.870Z,9.24
2023-04-22T04:04:21.801Z,9.23
2023-04-22T04:05:21.873Z,9.28
2023-04-22T04:06:21.779Z,9.23
2023-04-22T04:07:22.752Z,9.14
2023-04-22T04:08:21.896Z,9.10
2023-04-22T04:09:21.875Z,9.11
2023-04-22T04:10:21.948Z,9.12
2023-04-22T04:11:21.959Z,9.03
2023-04-22T04:12:22.014Z,8.95
2023-04-22T04:13:21.987Z,8.97
2023-04-22T04:14:22.059Z,9.04
2023-04-22T04:15:22.077Z,9.07
2023-04-22T04:16:22.276Z,9.09
2023-04-22T04:17:22.214Z,9.06
2023-04-22T04:18:22.228Z,9.08
2023-04-22T04:19:22.197Z,9.16
2023-04-22T04:20:22.284Z,9.09
2023-04-22T04:21:22.318Z,9.04
2023-04-22T04:22:22.276Z,9.07
2023-04-22T04:23:22.309Z,9.06
2023-04-22T04:24:22.336Z,9.16
2023-04-22T04:25:22.502Z,9.12
2023-04-22T04:26:22.499Z,9.07
2023-04-22T04:27:22.459Z,9.06
2023-04-22T04:28:22.512Z,9.04
2023-04-22T04:29:22.596Z,9.09
2023-04-22T04:30:22.566Z,9.13
2023-04-22T04:31:22.603Z,9.17
2023-04-22T04:32:22.722Z,9.12
2023-04-22T04:33:22.563Z,9.26
2023-04-22T04:34:22.608Z,9.42
2023-04-22T04:35:22.606Z,9.45
2023-04-22T04:36:22.638Z,9.52
2023-04-22T04:37:22.712Z,9.59
2023-04-22T04:38:22.610Z,9.69
2023-04-22T04:39:22.641Z,9.82
2023-04-22T04:40:22.675Z,9.89
2023-04-22T04:41:22.799Z,10.00
2023-04-22T04:42:22.783Z,10.11
2023-04-22T04:43:22.715Z,10.26
2023-04-22T04:44:22.788Z,10.40
2023-04-22T04:45:22.794Z,10.51
2023-04-22T04:46:22.884Z,10.58
2023-04-22T04:47:22.867Z,10.63
2023-04-22T04:48:22.887Z,10.63
2023-04-22T04:49:22.864Z,10.63
2023-04-22T04:50:22.937Z,10.66
2023-04-22T04:51:23.038Z,10.76
2023-04-22T04:52:22.960Z,10.85
2023-04-22T04:53:23.005Z,10.93
2023-04-22T04:54:23.009Z,10.95
2023-04-22T04:55:22.971Z,10.84
2023-04-22T04:56:23.207Z,10.89
2023-04-22T04:57:23.056Z,10.87
2023-04-22T04:58:23.047Z,10.83
2023-04-22T04:59:23.148Z,10.88
2023-04-22T05:00:23.112Z,10.89
2023-04-22T05:01:23.254Z,10.85
2023-04-22T05:02:23.666Z,10.89
2023-04-22T05:03:23.339Z,10.84
2023-04-22T05:04:23.483Z,10.73
2023-04-22T05:05:23.272Z,10.77
2023-04-22T05:06:23.314Z,10.81
2023-04-22T05:07:23.242Z,10.90
2023-04-22T05:08:23.266Z,10.94
2023-04-22T05:09:23.340Z,11.07
2023-04-22T05:10:23.336Z,11.01
2023-04-22T05:11:23.452Z,10.91
2023-04-22T05:12:23.435Z,10.98
2023-04-22T05:13:23.478Z,11.21
2023-04-22T05:14:23.552Z,11.38
2023-04-22T05:15:23.588Z,11.42
2023-04-22T05:16:23.672Z,11.41
2023-04-22T05:17:23.698Z,11.24
2023-04-22T05:18:23.672Z,11.36
2023-04-22T05:19:23.696Z,11.41
2023-04-22T05:20:23.697Z,11.49
2023-04-22T05:21:23.776Z,11.33
2023-04-22T05:22:23.800Z,11.19
2023-04-22T05:23:23.874Z,11.15
2023-04-22T05:24:23.926Z,11.07
2023-04-22T05:25:23.941Z,11.21
2023-04-22T05:26:24.082Z,11.28
2023-04-22T05:27:24.041Z,11.33
2023-04-22T05:28:24.115Z,11.38
2023-04-22T05:29:24.153Z,11.35
2023-04-22T05:30:24.183Z,11.44
2023-04-22T05:31:24.215Z,11.48
2023-04-22T05:32:24.505Z,11.31
2023-04-22T05:33:24.266Z,11.22
2023-04-22T05:34:24.337Z,11.12
2023-04-22T05:35:24.388Z,11.15
2023-04-22T05:36:24.443Z,11.29
2023-04-22T05:37:24.473Z,11.42
2023-04-22T05:38:24.518Z,11.50
2023-04-22T05:39:24.514Z,11.56
2023-04-22T05:40:24.650Z,11.61
2023-04-22T05:41:24.587Z,11.61
2023-04-22T05:42:24.624Z,11.62
2023-04-22T05:43:24.589Z,11.70
2023-04-22T05:44:24.623Z,11.51
2023-04-22T05:45:24.627Z,11.48
2023-04-22T05:46:24.731Z,11.63
2023-04-22T05:47:24.715Z,11.67
2023-04-22T05:48:24.705Z,11.64
2023-04-22T05:49:24.759Z,11.70
2023-04-22T05:50:24.778Z,11.75
2023-04-22T05:51:24.799Z,11.85
2023-04-22T05:52:24.793Z,11.97
2023-04-22T05:53:24.804Z,12.06
2023-04-22T05:54:24.836Z,12.14
2023-04-22T05:55:24.950Z,12.22
2023-04-22T05:56:24.948Z,12.13
2023-04-22T05:57:24.956Z,12.09
2023-04-22T05:58:24.987Z,12.09
2023-04-22T05:59:24.988Z,12.09
2023-04-22T06:00:25.008Z,12.10
2023-04-22T06:01:25.096Z,12.08
2023-04-22T06:02:25.332Z,12.07
2023-04-22T06:03:25.360Z,12.10
2023-04-22T06:04:25.463Z,12.08
2023-04-22T06:05:25.286Z,12.09
2023-04-22T06:06:25.248Z,12.15
2023-04-22T06:07:25.243Z,12.07
2023-04-22T06:08:25.213Z,12.12
2023-04-22T06:09:25.237Z,12.07
2023-04-22T06:10:25.324Z,12.08
2023-04-22T06:11:25.295Z,11.95
2023-04-22T06:12:25.287Z,11.77
2023-04-22T06:13:25.321Z,11.75
2023-04-22T06:14:25.343Z,11.69
2023-04-22T06:15:25.379Z,11.80
2023-04-22T06:16:25.414Z,11.89
2023-04-22T06:17:25.436Z,12.01
2023-04-22T06:18:26.521Z,12.02
2023-04-22T06:19:25.661Z,11.98
2023-04-22T06:20:25.565Z,11.95
2023-04-22T06:21:25.605Z,11.95
2023-04-22T06:22:25.712Z,11.92
2023-04-22T06:23:25.720Z,12.11
2023-04-22T06:24:27.312Z,12.36
2023-04-22T06:25:25.760Z,12.43
2023-04-22T06:26:25.804Z,12.52
2023-04-22T06:27:25.879Z,12.63
2023-04-22T06:28:25.928Z,12.57
2023-04-22T06:29:25.946Z,12.51
2023-04-22T06:30:26.001Z,12.51
2023-04-22T06:31:26.009Z,12.48
2023-04-22T06:32:26.042Z,12.30
2023-04-22T06:33:26.090Z,12.44
2023-04-22T06:34:26.105Z,12.57
2023-04-22T06:35:26.158Z,12.68
2023-04-22T06:36:27.951Z,12.70
2023-04-22T06:37:26.110Z,12.75
2023-04-22T06:38:26.268Z,12.67
2023-04-22T06:39:26.139Z,12.56
2023-04-22T06:40:26.103Z,12.53
2023-04-22T06:41:26.135Z,12.39
2023-04-22T06:42:26.118Z,12.39
2023-04-22T06:43:26.080Z,12.42
2023-04-22T06:44:26.080Z,12.43
2023-04-22T06:45:26.106Z,12.44
2023-04-22T06:46:26.115Z,12.61
2023-04-22T06:47:26.106Z,12.65
2023-04-22T06:48:26.054Z,12.43
2023-04-22T06:49:26.097Z,12.29
2023-04-22T06:50:26.077Z,12.35
2023-04-22T06:51:26.113Z,12.35
2023-04-22T06:52:26.028Z,12.25
2023-04-22T06:53:26.046Z,12.37
2023-04-22T06:54:26.045Z,12.52
2023-04-22T06:55:26.021Z,12.68
2023-04-22T06:56:26.000Z,12.78
2023-04-22T06:57:26.029Z,12.87
2023-04-22T06:58:26.079Z,12.80
2023-04-22T06:59:26.007Z,12.87
2023-04-22T07:00:25.963Z,12.82
2023-04-22T07:01:26.026Z,12.74
2023-04-22T07:02:26.077Z,12.82
2023-04-22T07:03:26.192Z,12.90
2023-04-22T07:04:26.822Z,12.83
2023-04-22T07:05:26.087Z,12.94
2023-04-22T07:06:25.977Z,13.07
2023-04-22T07:07:26.048Z,13.13
2023-04-22T07:08:26.014Z,13.19
2023-04-22T07:09:25.964Z,13.12
2023-04-22T07:10:26.136Z,13.12
2023-04-22T07:11:26.023Z,13.22
2023-04-22T07:12:26.172Z,13.20
2023-04-22T07:13:25.878Z,13.05
2023-04-22T07:14:25.939Z,13.19
2023-04-22T07:15:25.922Z,13.20
2023-04-22T07:16:25.960Z,13.23
2023-04-22T07:17:25.969Z,13.34
2023-04-22T07:18:25.876Z,13.45
2023-04-22T07:19:25.930Z,13.43
2023-04-22T07:20:25.976Z,13.47
2023-04-22T07:21:25.948Z,13.64
2023-04-22T07:22:25.953Z,13.58
2023-04-22T07:23:25.956Z,13.51
2023-04-22T07:24:25.996Z,13.57
2023-04-22T07:25:26.048Z,13.70
2023-04-22T07:26:26.089Z,13.79
2023-04-22T07:27:26.104Z,13.71
2023-04-22T07:28:26.224Z,13.80
2023-04-22T07:29:26.148Z,13.93
2023-04-22T07:30:26.134Z,14.04
2023-04-22T07:31:26.272Z,14.10
2023-04-22T07:32:26.305Z,14.11
2023-04-22T07:33:26.292Z,14.06
2023-04-22T07:34:26.349Z,14.00
2023-04-22T07:35:26.517Z,14.05
2023-04-22T07:36:26.599Z,14.12
2023-04-22T07:37:26.565Z,14.02
2023-04-22T07:38:26.744Z,13.96
2023-04-22T07:39:26.688Z,13.92
2023-04-22T07:40:26.663Z,13.83
2023-04-22T07:41:26.613Z,13.78
2023-04-22T07:42:26.610Z,13.85
2023-04-22T07:43:26.708Z,14.05
2023-04-22T07:44:26.854Z,14.31
2023-04-22T07:45:26.704Z,14.46
2023-04-22T07:46:26.716Z,14.57
2023-04-22T07:47:26.805Z,14.79
2023-04-22T07:48:27.419Z,14.99
2023-04-22T07:49:26.897Z,15.09
2023-04-22T07:50:26.835Z,15.07
2023-04-22T07:51:26.918Z,15.18
2023-04-22T07:52:26.892Z,15.25
2023-04-22T07:53:26.982Z,15.23
2023-04-22T07:54:26.977Z,15.39
2023-04-22T07:55:27.040Z,15.37
2023-04-22T07:56:27.182Z,15.41
2023-04-22T07:57:27.263Z,15.56
2023-04-22T07:58:27.119Z,15.61
2023-04-22T07:59:27.302Z,15.60
2023-04-22T08:00:27.238Z,15.73
2023-04-22T08:01:27.341Z,15.97
2023-04-22T08:02:27.423Z,16.07
2023-04-22T08:03:27.498Z,16.14
2023-04-22T08:04:27.606Z,16.17
2023-04-22T08:05:27.606Z,16.13
2023-04-22T08:06:27.482Z,16.17
2023-04-22T08:07:32.947Z,16.28
2023-04-22T08:08:28.434Z,16.23
2023-04-22T08:09:27.363Z,16.18
2023-04-22T08:10:27.450Z,16.13
2023-04-22T08:11:27.573Z,16.19
2023-04-22T08:12:27.901Z,16.31
2023-04-22T08:13:27.304Z,16.42
2023-04-22T08:14:27.422Z,16.60
2023-04-22T08:15:27.384Z,16.66
2023-04-22T08:16:27.534Z,16.61
2023-04-22T08:17:27.447Z,16.56
2023-04-22T08:18:27.340Z,16.70
2023-04-22T08:19:28.152Z,16.80
2023-04-22T08:20:27.528Z,16.87
2023-04-22T08:21:27.417Z,16.92
2023-04-22T08:22:27.481Z,17.02
2023-04-22T08:23:27.415Z,16.99
2023-04-22T08:24:27.862Z,16.91
2023-04-22T08:25:27.290Z,16.92
2023-04-22T08:26:27.253Z,16.98
2023-04-22T08:27:27.282Z,17.13
2023-04-22T08:28:27.408Z,17.29
2023-04-22T08:29:27.225Z,17.23
2023-04-22T08:30:27.247Z,17.29
2023-04-22T08:31:27.221Z,17.35
2023-04-22T08:32:27.278Z,17.43
2023-04-22T08:33:27.461Z,17.56
2023-04-22T08:34:27.275Z,17.68
2023-04-22T08:35:28.054Z,17.54
2023-04-22T08:36:27.221Z,17.53
2023-04-22T08:37:27.145Z,17.61
2023-04-22T08:38:27.352Z,17.75
2023-04-22T08:39:27.174Z,17.76
2023-04-22T08:40:27.341Z,17.89
2023-04-22T08:41:27.112Z,18.01
2023-04-22T08:42:27.201Z,18.02
2023-04-22T08:43:27.105Z,17.79
2023-04-22T08:44:27.175Z,17.74
2023-04-22T08:45:27.096Z,17.90
2023-04-22T08:46:27.142Z,18.06
2023-04-22T08:47:27.188Z,18.15
2023-04-22T08:48:27.092Z,18.24
2023-04-22T08:49:27.093Z,18.28
2023-04-22T08:50:27.177Z,18.28
2023-04-22T08:51:27.190Z,18.33
2023-04-22T08:52:27.156Z,18.31
2023-04-22T08:53:27.058Z,18.28
2023-04-22T08:54:27.042Z,18.31
2023-04-22T08:55:27.046Z,18.32
2023-04-22T08:56:27.046Z,18.23
2023-04-22T08:57:27.060Z,18.18
2023-04-22T08:58:27.100Z,18.25
2023-04-22T08:59:27.097Z,18.22
2023-04-22T09:00:27.210Z,18.19
2023-04-22T09:01:27.320Z,18.31
2023-04-22T09:02:27.980Z,18.41
2023-04-22T09:03:27.439Z,18.36
2023-04-22T09:04:27.412Z,18.29
2023-04-22T09:05:28.024Z,18.31
2023-04-22T09:06:27.403Z,18.44
2023-04-22T09:07:27.590Z,18.64
2023-04-22T09:08:27.515Z,18.67
2023-04-22T09:09:27.529Z,18.81
2023-04-22T09:10:27.528Z,18.93
2023-04-22T09:11:27.615Z,18.97
2023-04-22T09:12:27.593Z,18.89
2023-04-22T09:13:27.751Z,18.97
2023-04-22T09:14:27.712Z,19.01
2023-04-22T09:15:27.784Z,19.00
2023-04-22T09:16:28.445Z,19.04
2023-04-22T09:17:27.806Z,19.18
2023-04-22T09:18:27.884Z,19.26
2023-04-22T09:19:27.929Z,19.26
2023-04-22T09:20:27.891Z,19.30
2023-04-22T09:21:27.897Z,19.36
2023-04-22T09:22:27.889Z,19.49
2023-04-22T09:23:27.969Z,19.51
2023-04-22T09:24:28.916Z,19.61
2023-04-22T09:25:28.168Z,19.80
2023-04-22T09:26:28.058Z,19.82
2023-04-22T09:27:28.132Z,19.88
2023-04-22T09:28:28.167Z,20.02
2023-04-22T09:29:28.269Z,19.97
2023-04-22T09:30:28.328Z,20.20
2023-04-22T09:31:28.327Z,20.37
2023-04-22T09:32:28.485Z,20.54
2023-04-22T09:33:28.500Z,20.47
2023-04-22T09:34:28.491Z,20.46
2023-04-22T09:35:28.419Z,20.55
2023-04-22T09:36:28.454Z,20.59
2023-04-22T09:37:36.036Z,20.62
2023-04-22T09:38:29.588Z,20.70
2023-04-22T09:39:28.610Z,20.72
2023-04-22T09:40:28.652Z,20.81
2023-04-22T09:41:28.497Z,20.79
2023-04-22T09:42:28.558Z,20.83
2023-04-22T09:43:28.477Z,20.99
2023-04-22T09:44:28.475Z,21.11
2023-04-22T09:45:28.515Z,21.22
2023-04-22T09:46:28.719Z,21.21
2023-04-22T09:47:28.457Z,21.23
2023-04-22T09:48:28.442Z,21.29
2023-04-22T09:49:29.489Z,21.43
2023-04-22T09:50:28.429Z,21.56
2023-04-22T09:51:28.567Z,21.63
2023-04-22T09:52:29.365Z,21.73
2023-04-22T09:53:28.485Z,21.78
2023-04-22T09:54:28.517Z,21.71
2023-04-22T09:55:28.368Z,21.71
2023-04-22T09:56:28.453Z,21.82
2023-04-22T09:57:28.373Z,21.63
2023-04-22T09:58:28.427Z,21.51
2023-04-22T09:59:28.378Z,21.45
2023-04-22T10:00:28.483Z,21.46
2023-04-22T10:01:28.604Z,21.41
2023-04-22T10:02:28.714Z,21.44
2023-04-22T10:03:28.690Z,21.48
2023-04-22T10:04:28.839Z,21.62
2023-04-22T10:05:28.699Z,21.79
2023-04-22T10:06:28.807Z,21.92
2023-04-22T10:07:28.879Z,21.97
2023-04-22T10:08:28.810Z,21.82
2023-04-22T10:09:28.878Z,21.70
2023-04-22T10:10:28.955Z,21.72
2023-04-22T10:11:28.932Z,21.82
2023-04-22T10:12:35.341Z,21.87
2023-04-22T10:13:29.896Z,21.92
2023-04-22T10:14:28.940Z,21.71
2023-04-22T10:15:29.023Z,21.79
2023-04-22T10:16:29.015Z,21.77
2023-04-22T10:17:28.974Z,21.71
2023-04-22T10:18:28.903Z,21.84
2023-04-22T10:19:28.934Z,21.83
2023-04-22T10:20:28.848Z,22.00
2023-04-22T10:21:28.914Z,21.95
2023-04-22T10:22:29.017Z,21.98
2023-04-22T10:23:28.846Z,22.05
2023-04-22T10:24:28.908Z,22.08
2023-04-22T10:25:28.839Z,22.03
2023-04-22T10:26:28.838Z,21.98
2023-04-22T10:27:28.809Z,22.05
2023-04-22T10:28:28.822Z,22.14
2023-04-22T10:29:28.845Z,22.18
2023-04-22T10:30:28.780Z,22.14
2023-04-22T10:31:29.031Z,22.25
2023-04-22T10:32:28.845Z,22.38
2023-04-22T10:33:29.012Z,22.58
2023-04-22T10:34:28.812Z,22.75
2023-04-22T10:35:28.967Z,22.65
2023-04-22T10:36:28.931Z,22.70
2023-04-22T10:37:29.008Z,22.84
2023-04-22T10:38:28.973Z,22.94
2023-04-22T10:39:29.060Z,23.08
2023-04-22T10:40:29.009Z,23.09
2023-04-22T10:41:29.072Z,23.03
2023-04-22T10:42:29.098Z,22.78
2023-04-22T10:43:29.203Z,22.61
2023-04-22T10:44:30.004Z,22.52
2023-04-22T10:45:29.241Z,22.49
2023-04-22T10:46:29.256Z,22.55
2023-04-22T10:47:29.373Z,22.65
2023-04-22T10:48:29.262Z,22.71
2023-04-22T10:49:29.388Z,22.80
2023-04-22T10:50:29.394Z,22.99
2023-04-22T10:51:29.520Z,23.17
2023-04-22T10:52:29.481Z,23.35
2023-04-22T10:53:29.598Z,23.42
2023-04-22T10:54:31.852Z,23.54
2023-04-22T10:55:29.442Z,23.57
2023-04-22T10:56:29.516Z,23.51
2023-04-22T10:57:29.570Z,23.43
2023-04-22T10:58:29.504Z,23.39
2023-04-22T10:59:29.473Z,23.38
2023-04-22T11:00:33.163Z,23.38
2023-04-22T11:01:30.459Z,23.47
2023-04-22T11:02:29.530Z,23.53
2023-04-22T11:03:30.294Z,23.63
2023-04-22T11:04:29.411Z,23.73
2023-04-22T11:05:29.442Z,23.67
2023-04-22T11:06:29.431Z,23.70
2023-04-22T11:07:29.448Z,23.73
2023-04-22T11:08:29.439Z,23.59
2023-04-22T11:09:29.394Z,23.75
2023-04-22T11:10:29.420Z,23.98
2023-04-22T11:11:29.444Z,24.19
2023-04-22T11:12:29.380Z,24.34
2023-04-22T11:13:29.381Z,24.31
2023-04-22T11:14:29.454Z,24.23
2023-04-22T11:15:29.384Z,24.08
2023-04-22T11:16:29.385Z,24.26
2023-04-22T11:17:29.368Z,24.30
2023-04-22T11:18:29.407Z,24.53
2023-04-22T11:19:29.374Z,24.52
2023-04-22T11:20:29.409Z,24.43
2023-04-22T11:21:29.449Z,24.37
2023-04-22T11:22:29.460Z,24.09
2023-04-22T11:23:29.475Z,24.16
2023-04-22T11:24:29.579Z,24.28
2023-04-22T11:25:29.584Z,24.44
2023-04-22T11:26:29.637Z,24.60
2023-04-22T11:27:29.630Z,24.61
2023-04-22T11:28:29.683Z,24.69
2023-04-22T11:29:29.764Z,24.83
2023-04-22T11:30:29.792Z,24.82
2023-04-22T11:31:29.874Z,25.04
2023-04-22T11:32:29.979Z,25.22
2023-04-22T11:33:29.908Z,25.18
2023-04-22T11:34:29.910Z,25.17
2023-04-22T11:35:29.962Z,25.28
2023-04-22T11:36:29.951Z,25.37
2023-04-22T11:37:30.002Z,25.08
2023-04-22T11:38:30.065Z,24.99
2023-04-22T11:39:30.146Z,25.09
2023-04-22T11:40:31.764Z,24.85
2023-04-22T11:41:30.303Z,24.59
2023-04-22T11:42:30.342Z,24.72
2023-04-22T11:43:30.335Z,24.76
2023-04-22T11:44:30.495Z,24.88
2023-04-22T11:45:30.514Z,24.87
2023-04-22T11:46:30.657Z,24.98
2023-04-22T11:47:30.620Z,25.18
2023-04-22T11:48:30.565Z,25.31
2023-04-22T11:49:30.625Z,25.46
2023-04-22T11:50:30.701Z,25.59
2023-04-22T11:51:30.641Z,25.66
2023-04-22T11:52:30.647Z,25.72
2023-04-22T11:53:30.708Z,25.81
2023-04-22T11:54:30.755Z,25.93
2023-04-22T11:55:30.844Z,26.05
2023-04-22T11:56:30.884Z,26.22
2023-04-22T11:57:31.770Z,26.34
2023-04-22T11:58:30.923Z,26.24
2023-04-22T11:59:30.943Z,25.95
2023-04-22T12:00:31.005Z,25.75
2023-04-22T12:01:31.075Z,25.74
2023-04-22T12:02:31.222Z,25.83
2023-04-22T12:03:31.564Z,25.80
2023-04-22T12:04:31.160Z,25.91
2023-04-22T12:05:31.320Z,25.86
2023-04-22T12:06:31.217Z,25.81
2023-04-22T12:07:31.375Z,25.83
2023-04-22T12:08:31.331Z,25.75
2023-04-22T12:09:31.381Z,25.86
2023-04-22T12:10:31.452Z,25.71
2023-04-22T12:11:31.462Z,25.80
2023-04-22T12:12:31.510Z,25.89
2023-04-22T12:13:31.502Z,26.12
2023-04-22T12:14:31.528Z,26.13
2023-04-22T12:15:31.598Z,26.07
2023-04-22T12:16:31.631Z,26.18
2023-04-22T12:17:31.673Z,26.23
2023-04-22T12:18:31.703Z,26.40
2023-04-22T12:19:31.712Z,25.82
2023-04-22T12:20:31.778Z,25.73
2023-04-22T12:21:31.844Z,25.78
2023-04-22T12:22:31.878Z,25.96
2023-04-22T12:23:31.887Z,26.01
2023-04-22T12:24:31.912Z,26.06
2023-04-22T12:25:32.032Z,26.17
2023-04-22T12:26:32.054Z,26.26
2023-04-22T12:27:32.030Z,26.36
2023-04-22T12:28:32.039Z,26.10
2023-04-22T12:29:32.098Z,26.23
2023-04-22T12:30:32.074Z,26.36
2023-04-22T12:31:32.237Z,26.37
2023-04-22T12:32:32.140Z,26.41
2023-04-22T12:33:32.151Z,26.58
2023-04-22T12:34:32.138Z,26.69
2023-04-22T12:35:32.174Z,26.41
2023-04-22T12:36:32.253Z,26.18
2023-04-22T12:37:32.277Z,26.28
2023-04-22T12:38:32.329Z,26.25
2023-04-22T12:39:32.390Z,26.54
2023-04-22T12:40:32.325Z,26.75
2023-04-22T12:41:32.452Z,26.87
2023-04-22T12:42:32.384Z,27.02
2023-04-22T12:43:32.415Z,26.97
2023-04-22T12:44:32.493Z,26.85
2023-04-22T12:45:32.469Z,26.77
2023-04-22T12:46:32.587Z,26.84
2023-04-22T12:47:32.531Z,26.96
2023-04-22T12:48:32.511Z,26.85
2023-04-22T12:49:32.526Z,26.37
2023-04-22T12:50:32.547Z,26.11
2023-04-22T12:51:32.616Z,26.12
2023-04-22T12:52:32.636Z,26.23
2023-04-22T12:53:32.704Z,26.34
2023-04-22T12:54:32.681Z,26.47
2023-04-22T12:55:32.682Z,26.57
2023-04-22T12:56:32.770Z,26.71
2023-04-22T12:57:32.688Z,26.65